KCHO

Charlottesville-Albemarle Airport

Charlottesville, Virginia, USA
KCHO 210907Z 2109/2206 VRB03KT P6SM BKN150 OVC250 TEMPO 2109/2112 4SM BR FM211200 VRB03KT P6SM BKN150 FM211800 01005KT P6SM VCTS BKN050CB FM212100 05005KT 4SM SHRA VCTS OVC035CB FM220000 VRB03KT 2SM SHRA VCTS BKN025 OVC035CB
Issued Valid From Valid To
Jun-21 @ 09:07 UTC
(54 minutes ago)
Jun-21 @ 09:00 UTC
(an hour ago)
Jun-22 @ 06:00 UTC
(in 20 hours)
Jun-21 @ 09:00 to Jun-21 @ 12:00
KCHO 210907Z 2109/2206 VRB03KT P6SM BKN150 OVC250
Wind Visibility Clouds
Variable at 3 knots Greater than 6 miles
  • Broken at 15,000' AGL
  • Overcast at 25,000' AGL
Temporary Jun-21 @ 09:00 to Jun-21 @ 12:00
TEMPO 2109/2112 4SM BR
Visibility Conditions
4 miles
  • Mist
From Jun-21 @ 12:00 to Jun-21 @ 18:00
FM211200 VRB03KT P6SM BKN150
Wind Visibility Clouds
Variable at 3 knots Greater than 6 miles
  • Broken at 15,000' AGL
From Jun-21 @ 18:00 to Jun-21 @ 21:00
FM211800 01005KT P6SM VCTS BKN050CB
Wind Visibility Clouds Conditions
10° at 5 knots Greater than 6 miles
  • Broken at 5,000' AGL
  • Area Thunderstorm
From Jun-21 @ 21:00 to Jun-22 @ 00:00
FM212100 05005KT 4SM SHRA VCTS OVC035CB
Wind Visibility Clouds Conditions
50° at 5 knots 4 miles
  • Overcast at 3,500' AGL
  • Rain
  • Area Thunderstorm
From Jun-22 @ 00:00 to Jun-22 @ 06:00
FM220000 VRB03KT 2SM SHRA VCTS BKN025 OVC035CB
Wind Visibility Clouds Conditions
Variable at 3 knots 2 miles
  • Broken at 2,500' AGL
  • Overcast at 3,500' AGL
  • Rain
  • Area Thunderstorm
KCHO 210907Z 2109/2206 VRB03KT P6SM BKN150 OVC250 TEMPO 2109/2112 4SM BR FM211200 VRB03KT P6SM BKN150 FM211800 01005KT P6SM VCTS BKN050CB FM212100 05005KT 4SM SHRA VCTS OVC035CB FM220000 VRB03KT 2SM SHRA VCTS BKN025 OVC035CB
Issued Jun-21 @ 09:07 UTC
(54 minutes ago)
Valid From Jun-21 @ 09:00 UTC
(an hour ago)
Valid To Jun-22 @ 06:00 UTC
(in 20 hours)
Jun-21 @ 09:00 - Jun-21 @ 12:00
Wind Visibility
Variable at 3 knots Greater than 6 miles
Clouds
  • Broken at 15,000' AGL
  • Overcast at 25,000' AGL
Temporary Jun-21 @ 09:00 - Jun-21 @ 12:00
Conditions
  • Mist
From Jun-21 @ 12:00 - Jun-21 @ 18:00
Wind Visibility
Variable at 3 knots Greater than 6 miles
Clouds
  • Broken at 15,000' AGL
From Jun-21 @ 18:00 - Jun-21 @ 21:00
Wind Visibility
10° at 5 knots Greater than 6 miles
Clouds
  • Broken at 5,000' AGL
Conditions
  • Area Thunderstorm
From Jun-21 @ 21:00 - Jun-22 @ 00:00
Wind Visibility
50° at 5 knots 4 miles
Clouds
  • Overcast at 3,500' AGL
Conditions
  • Rain
  • Area Thunderstorm
From Jun-22 @ 00:00 - Jun-22 @ 06:00
Wind Visibility
Variable at 3 knots 2 miles
Clouds
  • Broken at 2,500' AGL
  • Overcast at 3,500' AGL
Conditions
  • Rain
  • Area Thunderstorm